createdAt,value
2022-11-25T00:04:39.353Z,19.00
2022-11-25T00:10:42.829Z,23.00
2022-11-25T00:16:48.675Z,23.00
2022-11-25T00:22:52.075Z,24.75
2022-11-25T00:28:55.032Z,35.00
2022-11-25T00:34:58.399Z,31.00
2022-11-25T00:41:20.623Z,32.75
2022-11-25T00:47:25.038Z,32.25
2022-11-25T00:53:28.004Z,37.75
2022-11-25T00:59:30.055Z,41.25
2022-11-25T01:05:35.125Z,38.50
2022-11-25T01:11:37.388Z,41.00
2022-11-25T01:17:39.344Z,51.75
2022-11-25T01:23:43.585Z,56.00
2022-11-25T01:29:48.702Z,61.50
2022-11-25T01:35:50.770Z,61.25
2022-11-25T01:41:53.635Z,53.50
2022-11-25T01:48:03.305Z,61.33
2022-11-25T01:54:07.070Z,49.75
2022-11-25T02:00:10.328Z,55.50
2022-11-25T02:06:37.422Z,53.00
2022-11-25T02:12:41.661Z,51.25
2022-11-25T02:18:43.724Z,59.25
2022-11-25T02:24:47.891Z,52.25
2022-11-25T02:30:51.019Z,56.75
2022-11-25T02:36:54.190Z,52.25
2022-11-25T02:43:00.521Z,51.00
2022-11-25T02:49:10.978Z,50.75
2022-11-25T02:55:15.561Z,48.00
2022-11-25T03:01:18.596Z,53.75
2022-11-25T03:07:23.259Z,47.50
2022-11-25T03:13:25.399Z,42.75
2022-11-25T03:19:28.205Z,43.75
2022-11-25T03:25:30.437Z,46.75
2022-11-25T03:31:33.737Z,41.50
2022-11-25T03:37:38.473Z,44.50
2022-11-25T03:43:43.126Z,50.50
2022-11-25T03:49:46.169Z,41.00
2022-11-25T03:55:48.856Z,57.75
2022-11-25T04:01:53.820Z,46.00
2022-11-25T04:07:58.698Z,39.00
2022-11-25T04:14:02.402Z,50.25
2022-11-25T04:20:05.868Z,37.25
2022-11-25T04:26:10.035Z,36.50
2022-11-25T04:32:17.894Z,45.75
2022-11-25T04:38:20.998Z,39.75
2022-11-25T04:44:24.128Z,43.00
2022-11-25T04:50:28.554Z,48.50
2022-11-25T04:56:42.852Z,43.75
2022-11-25T05:02:45.427Z,49.50
2022-11-25T05:08:54.627Z,44.50
2022-11-25T05:14:59.075Z,43.25
2022-11-25T05:21:04.085Z,46.75
